Terminal Aerodrome Forecast
Issued by NWS

Home | Current Version | Previous Version | Text Only | Print | Product List | Glossary On
Versions: 1 2 3 4 5 6 7 8 9 10 11 12
000
FTUS45 KTFX 241726
TAFHLN
TAF
KHLN 241726Z 2418/2518 17007KT P6SM SCT200
     FM242000 20018G26KT P6SM BKN200
     FM250200 23012KT P6SM SCT080 BKN120
     FM250800 27012KT P6SM VCSH SCT030 BKN050 PROB30 2508/2512 -SHRA
      BKN030=

USA.gov is the U.S. government's official web portal to all federal, state and local government web resources and services.